Archival Weather

Chicago O'Hare International

Chicago, Illinois (KORD)

Report from: Saturday, March 12, 2022 5:51 AM CST
Current time: Monday, September 26, 2022 8:46 PM CDT

Current weather
Weather history
Weather forecast

Temperature-11.7°C (10.9°F)
Wind chill-20.8°C (-5.4°F)
Dew point-18.3°C (-0.9°F)
Winds 13 kts (6.7 m/s, 15 mph) Northwest (310°)
Wind gusts 20 kts (10.3 m/s, 23 mph)
Visibility10 mi. (16.1 km)
Clouds Few clouds 2,000 ft. (610 m)
Altimeter30.12 in.Hg (1020 mB)
Relative humidity58 %
Density altitude-3,555 ft. (-1,084 m)
Sea-level pressure102.1 kPa (1021 mB, 30.15 in.Hg)
Max temp last 6 hours-8.9°C (16.0°F)
Min temp last 6 hours-11.7°C (10.9°F)
Remarks Automated weather observing station with precipitation discriminator
Pressure rising more quickly
Flight conditions Visual Meteorological Conditions
Raw dataKORD 121151Z 31013G20KT 10SM FEW020 M12/M18 A3012 RMK AO2 SLP210 T11171183 11089 21117 53005
An unhandled exception has occurred. See browser dev tools for details. Reload 🗙